Time;durP1;ratioP1;P1;durP2;ratioP2;P2;SDS_P1;SDS_P2;PMS_P1;PMS_P2;Temp;Humidity;BMP_temperature;BMP_pressure;BME280_temperature;BME280_humidity;BME280_pressure;Samples;Min_cycle;Max_cycle;Signal;HPM_P1;HPM_P2
2022/02/18 00:02:10;;;;;;;5.27;1.10;;;;;;;;;;4979008;28;20042;-87
2022/02/18 00:04:36;;;;;;;7.50;1.47;;;;;;;;;;4991767;28;20026;-87
2022/02/18 00:07:02;;;;;;;9.47;1.70;;;;;;;;;;4975726;28;20030;-88
2022/02/18 00:09:29;;;;;;;9.83;0.83;;;;;;;;;;4978052;28;20026;-88
2022/02/18 00:11:55;;;;;;;5.37;0.77;;;;;;;;;;4972508;28;20089;-87
2022/02/18 00:14:21;;;;;;;7.63;1.47;;;;;;;;;;4972624;28;20026;-88
2022/02/18 00:16:48;;;;;;;8.83;1.90;;;;;;;;;;4973009;28;20027;-87
2022/02/18 00:19:14;;;;;;;4.80;1.13;;;;;;;;;;4976074;28;20034;-86
2022/02/18 00:21:40;;;;;;;9.63;1.10;;;;;;;;;;4973663;28;20081;-86
2022/02/18 00:24:06;;;;;;;4.70;0.70;;;;;;;;;;4988708;28;20050;-86
2022/02/18 00:26:32;;;;;;;6.67;1.50;;;;;;;;;;4977210;28;20041;-86
2022/02/18 00:28:59;;;;;;;12.70;2.27;;;;;;;;;;4974504;28;20038;-86
2022/02/18 00:31:25;;;;;;;9.83;1.17;;;;;;;;;;4979663;28;20491;-87
2022/02/18 00:33:51;;;;;;;5.10;0.93;;;;;;;;;;4979348;28;20044;-86
2022/02/18 00:36:17;;;;;;;3.73;0.73;;;;;;;;;;4971430;28;20382;-86
2022/02/18 00:38:43;;;;;;;7.23;1.37;;;;;;;;;;4991707;28;20113;-86
2022/02/18 00:41:13;;;;;;;8.07;1.10;;;;;;;;;;4983181;28;20035;-86
2022/02/18 00:43:39;;;;;;;8.07;1.40;;;;;;;;;;4977971;28;20042;-86
2022/02/18 00:46:05;;;;;;;8.63;1.80;;;;;;;;;;4975342;28;20115;-87
2022/02/18 00:48:31;;;;;;;11.17;1.47;;;;;;;;;;4983520;28;20102;-86
2022/02/18 00:50:56;;;;;;;7.10;0.90;;;;;;;;;;4981137;28;20034;-86
2022/02/18 00:53:22;;;;;;;6.77;1.70;;;;;;;;;;4982924;28;20102;-87
2022/02/18 00:55:50;;;;;;;8.23;1.63;;;;;;;;;;4992465;28;20029;-86
2022/02/18 00:58:16;;;;;;;8.77;1.03;;;;;;;;;;4973541;28;20038;-86
2022/02/18 01:00:42;;;;;;;8.43;1.00;;;;;;;;;;4975493;28;20030;-86
2022/02/18 01:03:08;;;;;;;7.00;0.80;;;;;;;;;;4977588;28;20057;-86
2022/02/18 01:05:34;;;;;;;2.97;1.10;;;;;;;;;;4986293;28;20030;-87
2022/02/18 01:08:00;;;;;;;7.13;0.80;;;;;;;;;;4990304;28;20039;-86
2022/02/18 01:10:26;;;;;;;7.33;0.60;;;;;;;;;;4990640;28;20037;-87
2022/02/18 01:12:52;;;;;;;10.13;1.40;;;;;;;;;;4975371;28;20027;-87
2022/02/18 01:15:18;;;;;;;8.60;1.23;;;;;;;;;;4972684;28;20510;-86
2022/02/18 01:17:44;;;;;;;9.20;1.10;;;;;;;;;;4975652;28;20116;-87
2022/02/18 01:20:10;;;;;;;3.33;0.80;;;;;;;;;;4994661;28;20462;-87
2022/02/18 01:22:36;;;;;;;5.23;1.00;;;;;;;;;;4995110;28;20049;-87
2022/02/18 01:25:04;;;;;;;8.90;1.40;;;;;;;;;;4992341;28;20034;-86
2022/02/18 01:27:30;;;;;;;4.67;1.00;;;;;;;;;;4979088;28;20034;-87
2022/02/18 01:29:56;;;;;;;11.00;1.30;;;;;;;;;;4982169;28;20384;-87
2022/02/18 01:32:22;;;;;;;11.93;1.80;;;;;;;;;;4996170;28;20022;-87
2022/02/18 01:38:05;;;;;;;4.17;1.17;;;;;;;;;;4951726;28;20043;-88
2022/02/18 01:50:59;;;;;;;;;;;;;;;;;;;;;
2022/02/18 01:53:58;;;;;;;;;;;;;;;;;;;;;
2022/02/18 01:57:05;;;;;;;;;;;;;;;;;;;;;
2022/02/18 02:09:12;;;;;;;;;;;;;;;;;;;;;
2022/02/18 02:18:34;;;;;;;;;;;;;;;;;;;;;
2022/02/18 02:27:50;;;;;;;5.77;0.90;;;;;;;;;;4917269;29;20094;-89
2022/02/18 04:39:16;;;;;;;6.33;1.53;;;;;;;;;;4964389;28;20070;-86
2022/02/18 04:48:21;;;;;;;6.00;1.40;;;;;;;;;;4856375;29;20356;-88
2022/02/18 04:57:31;;;;;;;6.70;1.03;;;;;;;;;;4902528;29;20032;-88
2022/02/18 05:00:33;;;;;;;;;;;;;;;;;;;;;
2022/02/18 05:09:38;;;;;;;;;;;;;;;;;;;;;
2022/02/18 05:12:29;;;;;;;4.20;1.07;;;;;;;;;;4927157;29;20031;-89
2022/02/18 05:15:07;;;;;;;8.83;0.87;;;;;;;;;;4935299;29;20086;-89
2022/02/18 05:20:29;;;;;;;8.68;0.90;;;;;;;;;;4890442;29;20025;-89
2022/02/18 05:41:34;;;;;;;;;;;;;;;;;;4859164;29;20085;-89
2022/02/18 05:44:38;;;;;;;6.57;0.83;;;;;;;;;;4857070;29;20350;-88
2022/02/18 06:24:18;;;;;;;4.33;1.30;;;;;;;;;;4971365;28;20050;-87
2022/02/18 06:27:23;;;;;;;;;;;;;;;;;;;;;
2022/02/18 08:04:25;;;;;;;5.20;0.87;;;;;;;;;;4987867;28;20510;-88
2022/02/18 08:06:51;;;;;;;4.77;0.90;;;;;;;;;;4972989;28;20163;-88
2022/02/18 08:09:17;;;;;;;2.83;0.90;;;;;;;;;;4990711;28;20110;-88
2022/02/18 08:11:43;;;;;;;2.97;0.70;;;;;;;;;;4972505;28;20034;-89
2022/02/18 08:14:09;;;;;;;2.87;0.40;;;;;;;;;;4972905;28;20057;-88
2022/02/18 08:16:35;;;;;;;2.67;0.30;;;;;;;;;;4973329;28;20061;-89
2022/02/18 08:19:05;;;;;;;3.17;0.33;;;;;;;;;;4976279;28;20116;-88
2022/02/18 08:21:32;;;;;;;2.10;0.53;;;;;;;;;;4976581;28;20110;-88
2022/02/18 08:23:58;;;;;;;5.60;0.73;;;;;;;;;;4960932;28;20098;-88
2022/02/18 08:26:24;;;;;;;3.70;0.90;;;;;;;;;;4956380;28;20034;-89
2022/02/18 08:28:50;;;;;;;3.00;0.40;;;;;;;;;;4955961;28;20502;-89
2022/02/18 08:31:17;;;;;;;3.25;0.47;;;;;;;;;;4971586;28;20053;-89
2022/02/18 08:33:43;;;;;;;4.45;0.50;;;;;;;;;;4973984;28;20054;-89
2022/02/18 08:36:12;;;;;;;3.60;0.57;;;;;;;;;;4974409;28;20031;-88
2022/02/18 08:38:38;;;;;;;3.25;0.50;;;;;;;;;;4974601;28;20129;-88
2022/02/18 08:41:05;;;;;;;4.40;0.47;;;;;;;;;;4975369;28;20022;-88
2022/02/18 08:43:31;;;;;;;3.00;0.50;;;;;;;;;;4974559;28;20041;-87
2022/02/18 08:45:57;;;;;;;2.00;0.50;;;;;;;;;;4971222;28;20034;-87
2022/02/18 08:48:23;;;;;;;2.30;0.90;;;;;;;;;;4973381;28;20073;-88
2022/02/18 08:50:49;;;;;;;3.50;0.30;;;;;;;;;;4956686;28;20089;-88
2022/02/18 09:03:01;;;;;;;0.90;0.20;;;;;;;;;;5004770;23;20050;-89
2022/02/18 09:09:11;;;;;;;1.27;0.30;;;;;;;;;;4914538;29;20083;-89
2022/02/18 09:18:10;;;;;;;3.75;0.35;;;;;;;;;;4932726;29;20032;-89
2022/02/18 09:20:44;;;;;;;7.00;0.40;;;;;;;;;;4962889;28;20042;-88
2022/02/18 09:23:11;;;;;;;1.83;0.28;;;;;;;;;;4991484;28;20042;-88
2022/02/18 09:25:37;;;;;;;1.00;0.30;;;;;;;;;;4974018;28;20031;-89
2022/02/18 09:28:03;;;;;;;0.25;0.10;;;;;;;;;;4991826;28;20394;-88
2022/02/18 09:30:33;;;;;;;0.82;0.30;;;;;;;;;;4979758;28;20162;-88
2022/02/18 09:32:59;;;;;;;0.85;0.20;;;;;;;;;;4957256;28;20031;-87
2022/02/18 09:35:28;;;;;;;0.63;0.13;;;;;;;;;;4990472;28;20029;-88
2022/02/18 09:37:58;;;;;;;1.90;0.10;;;;;;;;;;4970002;28;20042;-87
2022/02/18 09:40:33;;;;;;;1.65;0.55;;;;;;;;;;4987727;28;20470;-89
2022/02/18 09:43:02;;;;;;;1.85;0.20;;;;;;;;;;4977604;28;20031;-88
2022/02/18 09:45:31;;;;;;;0.70;0.17;;;;;;;;;;4977916;28;20022;-89
2022/02/18 09:47:57;;;;;;;0.65;0.10;;;;;;;;;;4974851;28;20034;-88
2022/02/18 09:50:23;;;;;;;1.05;0.28;;;;;;;;;;4978213;28;20027;-88
2022/02/18 09:52:50;;;;;;;0.50;0.10;;;;;;;;;;4995404;28;20026;-88
2022/02/18 09:55:16;;;;;;;1.77;0.15;;;;;;;;;;4975574;28;20042;-88
2022/02/18 09:57:45;;;;;;;0.95;0.10;;;;;;;;;;4960037;28;20045;-88
2022/02/18 10:00:12;;;;;;;1.20;0.10;;;;;;;;;;4959030;28;20027;-88
2022/02/18 10:02:40;;;;;;;2.42;0.28;;;;;;;;;;4959593;28;20027;-89
2022/02/18 10:05:06;;;;;;;0.77;0.15;;;;;;;;;;4964613;28;20030;-88
2022/02/18 10:07:33;;;;;;;0.68;0.10;;;;;;;;;;4998198;28;20030;-88
2022/02/18 10:09:59;;;;;;;1.35;0.20;;;;;;;;;;4994603;28;20114;-88
2022/02/18 10:12:36;;;;;;;1.85;0.20;;;;;;;;;;4976987;28;20111;-87
2022/02/18 10:15:09;;;;;;;2.80;0.15;;;;;;;;;;4976869;28;20156;-89
2022/02/18 10:17:40;;;;;;;1.80;0.20;;;;;;;;;;4977277;28;20160;-88
2022/02/18 10:20:14;;;;;;;0.55;0.20;;;;;;;;;;4976023;28;20155;-89
2022/02/18 10:22:53;;;;;;;1.27;0.20;;;;;;;;;;4957577;28;20039;-88
2022/02/18 10:25:26;;;;;;;0.35;0.10;;;;;;;;;;4974261;28;20094;-88
2022/02/18 10:27:52;;;;;;;0.80;0.73;;;;;;;;;;4976834;28;20030;-86
2022/02/18 10:30:26;;;;;;;2.88;0.28;;;;;;;;;;4993790;28;20029;-89
2022/02/18 10:32:56;;;;;;;0.60;0.10;;;;;;;;;;4976618;28;20030;-89
2022/02/18 10:35:32;;;;;;;0.55;0.15;;;;;;;;;;4994080;28;20031;-88
2022/02/18 10:37:59;;;;;;;1.67;0.30;;;;;;;;;;4972709;28;20046;-88
2022/02/18 10:40:25;;;;;;;4.05;0.45;;;;;;;;;;4986196;28;20094;-89
2022/02/18 10:42:52;;;;;;;3.45;0.50;;;;;;;;;;4994686;28;20102;-90
2022/02/18 10:45:19;;;;;;;2.13;0.20;;;;;;;;;;4993710;28;20463;-90
2022/02/18 10:47:46;;;;;;;3.03;0.28;;;;;;;;;;4979001;28;20508;-90
2022/02/18 10:50:23;;;;;;;1.77;0.17;;;;;;;;;;4956505;28;20035;-88
2022/02/18 10:53:11;;;;;;;2.90;0.30;;;;;;;;;;4957109;28;20030;-88
2022/02/18 10:55:56;;;;;;;2.30;0.30;;;;;;;;;;4966730;28;20034;-87
2022/02/18 10:58:23;;;;;;;0.40;0.10;;;;;;;;;;4985621;28;20113;-87
2022/02/18 11:01:09;;;;;;;0.50;0.08;;;;;;;;;;4994389;28;20057;-88
2022/02/18 11:03:36;;;;;;;2.17;0.55;;;;;;;;;;4981882;28;20038;-89
2022/02/18 11:06:11;;;;;;;0.50;0.10;;;;;;;;;;4983552;28;20062;-88
2022/02/18 11:08:39;;;;;;;0.57;0.10;;;;;;;;;;4956591;28;20045;-88
2022/02/18 11:11:11;;;;;;;1.58;0.28;;;;;;;;;;4974074;28;20036;-88
2022/02/18 11:13:42;;;;;;;2.45;0.20;;;;;;;;;;4963606;28;20540;-88
2022/02/18 11:16:13;;;;;;;2.03;0.30;;;;;;;;;;4957179;28;20388;-89
2022/02/18 11:18:40;;;;;;;1.17;0.20;;;;;;;;;;4956701;28;20031;-90
2022/02/18 11:21:07;;;;;;;0.50;0.08;;;;;;;;;;4974143;28;20106;-89
2022/02/18 11:23:34;;;;;;;0.75;0.20;;;;;;;;;;4955900;28;20091;-89
2022/02/18 11:26:00;;;;;;;0.38;0.10;;;;;;;;;;4956671;28;20114;-89
2022/02/18 11:28:30;;;;;;;1.02;0.38;;;;;;;;;;4956601;28;20038;-89
2022/02/18 11:31:06;;;;;;;1.00;0.20;;;;;;;;;;4957467;28;20027;-89
2022/02/18 11:33:53;;;;;;;0.88;0.20;;;;;;;;;;4956678;28;20453;-88
2022/02/18 11:36:38;;;;;;;1.75;0.10;;;;;;;;;;4956700;28;20113;-89
2022/02/18 11:39:17;;;;;;;0.57;0.17;;;;;;;;;;4957433;28;20407;-89
2022/02/18 11:41:48;;;;;;;1.27;0.38;;;;;;;;;;4991787;28;20033;-88
2022/02/18 11:44:14;;;;;;;0.20;0.03;;;;;;;;;;4977592;28;20383;-89
2022/02/18 11:46:40;;;;;;;4.05;0.47;;;;;;;;;;4979674;28;20030;-88
2022/02/18 11:49:09;;;;;;;0.43;0.05;;;;;;;;;;4978482;28;20041;-88
2022/02/18 11:51:41;;;;;;;2.35;0.13;;;;;;;;;;4956114;28;20064;-87
2022/02/18 11:54:22;;;;;;;3.10;0.20;;;;;;;;;;4965455;28;20053;-88
2022/02/18 11:56:54;;;;;;;1.02;0.10;;;;;;;;;;4978726;28;20034;-89
2022/02/18 11:59:20;;;;;;;0.35;0.10;;;;;;;;;;4959494;28;20033;-88
2022/02/18 12:01:58;;;;;;;1.08;0.20;;;;;;;;;;4977380;28;20472;-89
2022/02/18 12:04:28;;;;;;;0.55;0.20;;;;;;;;;;4979395;28;20026;-89
2022/02/18 12:07:12;;;;;;;0.05;0.00;;;;;;;;;;4996054;28;20034;-90
2022/02/18 12:09:52;;;;;;;1.30;0.03;;;;;;;;;;4996772;28;20234;-89
2022/02/18 12:12:22;;;;;;;0.90;0.20;;;;;;;;;;4994902;28;20494;-90
2022/02/18 12:14:55;;;;;;;1.15;0.15;;;;;;;;;;4976053;28;20054;-90
2022/02/18 12:17:21;;;;;;;0.43;0.10;;;;;;;;;;4977741;28;20025;-90
2022/02/18 12:19:47;;;;;;;3.40;0.20;;;;;;;;;;4975462;28;20030;-87
2022/02/18 12:22:13;;;;;;;0.05;0.00;;;;;;;;;;4992531;28;20026;-89
2022/02/18 12:24:55;;;;;;;2.10;0.20;;;;;;;;;;4976457;28;20029;-90
2022/02/18 12:27:24;;;;;;;0.55;0.10;;;;;;;;;;4975180;28;20061;-90
2022/02/18 12:29:51;;;;;;;0.20;0.10;;;;;;;;;;4973294;28;20030;-91
2022/02/18 12:32:18;;;;;;;0.95;0.20;;;;;;;;;;4975328;28;20414;-90
2022/02/18 12:34:45;;;;;;;0.25;0.00;;;;;;;;;;4971513;28;20022;-90
2022/02/18 12:37:13;;;;;;;0.85;0.20;;;;;;;;;;4990748;28;20019;-90
2022/02/18 12:39:40;;;;;;;0.57;0.13;;;;;;;;;;4990008;28;20058;-90
2022/02/18 12:42:11;;;;;;;1.35;0.10;;;;;;;;;;4983871;28;20086;-90
2022/02/18 12:44:47;;;;;;;0.55;0.10;;;;;;;;;;4979285;28;20026;-90
2022/02/18 12:47:25;;;;;;;0.25;0.08;;;;;;;;;;4994413;28;20084;-91
2022/02/18 12:50:07;;;;;;;0.30;0.05;;;;;;;;;;4987032;28;20026;-91
2022/02/18 12:52:34;;;;;;;1.60;0.17;;;;;;;;;;5002937;28;20061;-91
2022/02/18 12:55:01;;;;;;;0.52;0.10;;;;;;;;;;4994435;28;20085;-91
2022/02/18 12:57:34;;;;;;;1.15;0.30;;;;;;;;;;5003809;28;20518;-90
2022/02/18 13:00:03;;;;;;;0.28;0.10;;;;;;;;;;4987049;28;20057;-92
2022/02/18 13:02:43;;;;;;;1.95;0.20;;;;;;;;;;4996747;28;20022;-90
2022/02/18 13:05:12;;;;;;;1.00;0.15;;;;;;;;;;4976016;28;20038;-91
2022/02/18 13:07:42;;;;;;;0.75;0.10;;;;;;;;;;4972049;28;20491;-91
2022/02/18 13:10:10;;;;;;;0.20;0.05;;;;;;;;;;4981128;28;20073;-91
2022/02/18 13:12:44;;;;;;;1.40;0.20;;;;;;;;;;4984484;28;20076;-91
2022/02/18 13:15:12;;;;;;;0.60;0.10;;;;;;;;;;4977835;28;20026;-90
2022/02/18 13:17:40;;;;;;;2.42;0.20;;;;;;;;;;4972943;28;20094;-91
2022/02/18 13:20:07;;;;;;;0.57;0.15;;;;;;;;;;4973881;28;20031;-90
2022/02/18 13:22:34;;;;;;;1.40;0.10;;;;;;;;;;4987038;28;20482;-91
2022/02/18 13:25:17;;;;;;;1.48;0.10;;;;;;;;;;4991576;28;20034;-90
2022/02/18 13:27:43;;;;;;;1.10;0.10;;;;;;;;;;4981773;28;20042;-90
2022/02/18 13:30:10;;;;;;;0.95;0.35;;;;;;;;;;4996333;28;20113;-90
2022/02/18 13:32:36;;;;;;;0.65;0.30;;;;;;;;;;4991178;28;20026;-90
2022/02/18 13:38:30;;;;;;;0.82;0.38;;;;;;;;;;4996135;28;20042;-91
2022/02/18 13:41:28;;;;;;;;;;;;;;;;;;;;;
2022/02/18 13:44:20;;;;;;;2.38;0.20;;;;;;;;;;4999833;28;20105;-90
2022/02/18 13:46:58;;;;;;;1.15;0.30;;;;;;;;;;4979580;28;20030;-91
2022/02/18 13:49:52;;;;;;;;;;;;;;;;;;;;;
2022/02/18 13:52:44;;;;;;;0.40;0.00;;;;;;;;;;4994910;28;20033;-90
2022/02/18 13:55:29;;;;;;;0.90;0.10;;;;;;;;;;4970294;28;20039;-90
2022/02/18 13:58:00;;;;;;;0.65;0.10;;;;;;;;;;4978324;28;20062;-91
2022/02/18 14:00:40;;;;;;;1.02;0.17;;;;;;;;;;4976329;28;20038;-90
2022/02/18 14:03:10;;;;;;;0.52;0.17;;;;;;;;;;4985118;28;20031;-89
2022/02/18 14:05:36;;;;;;;1.55;0.15;;;;;;;;;;4995092;28;20042;-90
2022/02/18 14:11:15;;;;;;;0.73;0.10;;;;;;;;;;5195461;23;20110;-87
2022/02/18 16:00:29;;;;;;;1.35;0.28;;;;;;;;;;4974259;28;20082;-88
2022/02/18 16:06:02;;;;;;;1.60;0.10;;;;;;;;;;4971180;28;20085;-88
2022/02/18 16:08:47;;;;;;;0.80;0.20;;;;;;;;;;4952685;28;20030;-89
2022/02/18 16:11:23;;;;;;;0.22;0.10;;;;;;;;;;4951338;28;20039;-89
2022/02/18 16:14:55;;;;;;;0.20;0.10;;;;;;;;;;4957687;28;20050;-89
2022/02/18 16:20:31;;;;;;;0.20;0.10;;;;;;;;;;4888886;29;20029;-89
2022/02/18 16:29:19;;;;;;;0.22;0.03;;;;;;;;;;4889723;29;20469;-89
2022/02/18 16:38:23;;;;;;;2.05;0.45;;;;;;;;;;4892210;29;20551;-88
2022/02/18 16:41:13;;;;;;;1.20;0.20;;;;;;;;;;4886211;29;20102;-88
2022/02/18 16:49:47;;;;;;;1.15;0.32;;;;;;;;;;4935031;29;20519;-89
2022/02/18 16:52:46;;;;;;;5.68;0.88;;;;;;;;;;4922969;29;20043;-89
2022/02/18 16:55:44;;;;;;;1.42;0.22;;;;;;;;;;4939997;29;20027;-88
2022/02/18 17:00:55;;;;;;;2.78;0.20;;;;;;;;;;4988949;23;20051;-88
2022/02/18 17:06:08;;;;;;;0.88;0.20;;;;;;;;;;4990092;28;20013;-88
2022/02/18 17:08:47;;;;;;;0.38;0.17;;;;;;;;;;4974474;28;20030;-88
2022/02/18 17:11:40;;;;;;;0.93;0.30;;;;;;;;;;4974700;28;20027;-88
2022/02/18 17:17:39;;;;;;;0.40;0.13;;;;;;;;;;4985185;28;20068;-88
2022/02/18 17:20:39;;;;;;;1.45;0.30;;;;;;;;;;5167064;23;20440;-90
2022/02/18 17:26:34;;;;;;;0.25;0.10;;;;;;;;;;4985880;28;20118;-88
2022/02/18 17:29:03;;;;;;;0.00;0.00;;;;;;;;;;4976494;28;20058;-90
2022/02/18 17:31:36;;;;;;;0.25;0.10;;;;;;;;;;4969005;28;20507;-90
2022/02/18 17:34:08;;;;;;;0.00;0.00;;;;;;;;;;4968527;28;20129;-90
2022/02/18 17:36:57;;;;;;;0.60;0.20;;;;;;;;;;4970592;28;20023;-89
2022/02/18 17:39:23;;;;;;;0.68;0.20;;;;;;;;;;4958862;28;20031;-90
2022/02/18 17:41:52;;;;;;;0.47;0.20;;;;;;;;;;4936015;29;20031;-90
2022/02/18 17:44:28;;;;;;;1.00;0.20;;;;;;;;;;4966537;28;20027;-90
2022/02/18 17:47:07;;;;;;;0.38;0.13;;;;;;;;;;4950264;28;20034;-89
2022/02/18 17:49:47;;;;;;;0.68;0.20;;;;;;;;;;4959805;28;20492;-89
2022/02/18 17:52:48;;;;;;;0.25;0.05;;;;;;;;;;4954105;28;20042;-90
2022/02/18 17:55:41;;;;;;;0.60;0.10;;;;;;;;;;4954132;28;20035;-89
2022/02/18 17:58:36;;;;;;;2.72;0.30;;;;;;;;;;4949269;28;20047;-90
2022/02/18 18:03:58;;;;;;;0.15;0.00;;;;;;;;;;4972976;28;20472;-90
2022/02/18 18:06:35;;;;;;;0.73;0.20;;;;;;;;;;4956842;28;20165;-90
2022/02/18 18:12:32;;;;;;;2.33;0.95;;;;;;;;;;4915472;29;20024;-90
2022/02/18 18:15:23;;;;;;;0.30;0.00;;;;;;;;;;4911932;29;20044;-91
2022/02/18 18:18:11;;;;;;;2.55;0.55;;;;;;;;;;4883529;29;20024;-88
2022/02/18 19:09:00;;;;;;;1.97;0.50;;;;;;;;;;1992617;23;22033;-88
2022/02/18 19:11:29;;;;;;;0.63;0.23;;;;;;;;;;4974812;28;20034;-87
2022/02/18 19:13:58;;;;;;;1.37;0.40;;;;;;;;;;4976027;28;20080;-89
2022/02/18 19:16:30;;;;;;;8.93;1.90;;;;;;;;;;4975410;28;20034;-90
2022/02/18 19:18:57;;;;;;;;;;;;;;;;;;4962679;28;20576;-89
2022/02/18 19:21:23;;;;;;;1.40;0.40;;;;;;;;;;4970596;28;19917;-87
2022/02/18 19:23:53;;;;;;;0.83;0.20;;;;;;;;;;4971005;28;20034;-89
2022/02/18 19:26:19;;;;;;;1.73;0.47;;;;;;;;;;4967665;28;20029;-89
2022/02/18 19:28:47;;;;;;;1.97;0.50;;;;;;;;;;4972365;28;20117;-89
2022/02/18 19:31:13;;;;;;;4.47;0.87;;;;;;;;;;4972611;28;20054;-90
2022/02/18 19:33:43;;;;;;;3.87;1.27;;;;;;;;;;4973261;28;20022;-89
2022/02/18 19:36:09;;;;;;;2.90;0.73;;;;;;;;;;4969577;28;20026;-89
2022/02/18 19:38:35;;;;;;;2.73;0.50;;;;;;;;;;4969981;28;20031;-87
2022/02/18 19:41:02;;;;;;;4.30;1.20;;;;;;;;;;4982732;28;20034;-88
2022/02/18 19:43:28;;;;;;;0.30;0.10;;;;;;;;;;4986495;28;20023;-90
2022/02/18 19:45:56;;;;;;;3.47;0.40;;;;;;;;;;4989458;28;20026;-88
2022/02/18 19:53:48;;;;;;;1.07;0.30;;;;;;;;;;4993407;28;20035;-90
2022/02/18 19:56:29;;;;;;;1.03;0.30;;;;;;;;;;4952174;28;20042;-87
2022/02/18 20:02:02;;;;;;;1.00;0.20;;;;;;;;;;4920161;29;20453;-89
2022/02/18 20:04:38;;;;;;;2.37;0.60;;;;;;;;;;4966945;28;20042;-92
2022/02/18 20:07:07;;;;;;;1.43;0.20;;;;;;;;;;4951525;28;20085;-88
2022/02/18 20:09:36;;;;;;;0.40;0.10;;;;;;;;;;4943117;28;20142;-89
2022/02/18 20:12:03;;;;;;;4.33;0.90;;;;;;;;;;5000550;23;20145;-85
2022/02/18 20:14:29;;;;;;;1.50;0.30;;;;;;;;;;4973737;28;20018;-84
2022/02/18 20:16:55;;;;;;;4.10;1.13;;;;;;;;;;4981249;28;20049;-84
2022/02/18 20:19:23;;;;;;;1.43;0.27;;;;;;;;;;4972336;28;20041;-86
2022/02/18 20:21:50;;;;;;;1.20;0.20;;;;;;;;;;4970133;28;20030;-85
2022/02/18 20:24:16;;;;;;;1.33;0.10;;;;;;;;;;4976891;28;20052;-87
2022/02/18 20:26:42;;;;;;;0.83;0.10;;;;;;;;;;4970967;28;20078;-86
2022/02/18 20:29:08;;;;;;;2.57;0.20;;;;;;;;;;4967914;28;20038;-88
2022/02/18 20:31:37;;;;;;;1.27;0.10;;;;;;;;;;4975398;28;20022;-87
2022/02/18 20:34:24;;;;;;;0.60;0.17;;;;;;;;;;4981384;28;20081;-88
2022/02/18 20:37:12;;;;;;;0.97;0.10;;;;;;;;;;4978563;28;20097;-87
2022/02/18 20:39:42;;;;;;;0.33;0.10;;;;;;;;;;4995564;28;20101;-88
2022/02/18 20:45:13;;;;;;;0.90;0.23;;;;;;;;;;4964046;28;20042;-86
2022/02/18 20:47:39;;;;;;;1.40;0.37;;;;;;;;;;4968706;28;20062;-86
2022/02/18 20:50:05;;;;;;;1.80;0.30;;;;;;;;;;4973325;28;20038;-87
2022/02/18 20:52:31;;;;;;;0.97;0.23;;;;;;;;;;4982649;28;20026;-86
2022/02/18 20:54:57;;;;;;;1.63;0.30;;;;;;;;;;4965582;28;20030;-86
2022/02/18 20:57:23;;;;;;;0.90;0.20;;;;;;;;;;4990793;28;20030;-87
2022/02/18 20:59:49;;;;;;;0.40;0.10;;;;;;;;;;4982873;28;20030;-85
2022/02/18 21:02:16;;;;;;;2.10;0.10;;;;;;;;;;4991167;28;20427;-86
2022/02/18 21:04:42;;;;;;;0.83;0.30;;;;;;;;;;4971128;28;20079;-86
2022/02/18 21:07:09;;;;;;;2.40;0.30;;;;;;;;;;4973795;28;20121;-86
2022/02/18 21:09:35;;;;;;;1.10;0.33;;;;;;;;;;4969263;28;20061;-86
2022/02/18 21:12:01;;;;;;;3.53;0.27;;;;;;;;;;4974188;28;20117;-85
2022/02/18 21:14:27;;;;;;;1.37;0.20;;;;;;;;;;4986758;28;20483;-85
2022/02/18 21:16:53;;;;;;;0.73;0.20;;;;;;;;;;4973926;28;20176;-84
2022/02/18 21:19:19;;;;;;;0.83;0.23;;;;;;;;;;4971125;28;20113;-86
2022/02/18 21:21:47;;;;;;;1.03;0.20;;;;;;;;;;4974188;28;20037;-86
2022/02/18 21:24:13;;;;;;;1.40;0.30;;;;;;;;;;4976069;28;20486;-85
2022/02/18 21:26:39;;;;;;;0.10;0.10;;;;;;;;;;4978673;28;20061;-86
2022/02/18 21:29:05;;;;;;;0.53;0.10;;;;;;;;;;4981952;28;20040;-86
2022/02/18 21:31:31;;;;;;;0.50;0.13;;;;;;;;;;4972012;28;20483;-85
2022/02/18 21:33:58;;;;;;;1.00;0.20;;;;;;;;;;4980031;28;20061;-86
2022/02/18 21:36:24;;;;;;;2.43;0.10;;;;;;;;;;4977793;28;20038;-86
2022/02/18 21:38:50;;;;;;;3.53;0.43;;;;;;;;;;4981544;28;20364;-86
2022/02/18 21:41:17;;;;;;;1.83;0.20;;;;;;;;;;4992304;28;20026;-86
2022/02/18 21:43:44;;;;;;;0.30;0.10;;;;;;;;;;4992446;28;21167;-83
2022/02/18 21:46:11;;;;;;;1.17;0.20;;;;;;;;;;4966035;28;20114;-83
2022/02/18 21:48:37;;;;;;;0.93;0.20;;;;;;;;;;4992037;28;20045;-83
2022/02/18 21:51:03;;;;;;;0.20;0.10;;;;;;;;;;4985240;28;20352;-84
2022/02/18 21:53:29;;;;;;;0.43;0.10;;;;;;;;;;4988496;28;20030;-83
2022/02/18 21:56:04;;;;;;;0.27;0.10;;;;;;;;;;4990041;28;20030;-85
2022/02/18 21:58:30;;;;;;;1.70;0.20;;;;;;;;;;4975232;28;20387;-85
2022/02/18 22:00:57;;;;;;;1.37;0.30;;;;;;;;;;4994256;28;20510;-86
2022/02/18 22:03:23;;;;;;;1.17;0.20;;;;;;;;;;4978223;28;20100;-86
2022/02/18 22:05:51;;;;;;;1.20;0.37;;;;;;;;;;4977406;28;20090;-85
2022/02/18 22:08:17;;;;;;;1.70;0.30;;;;;;;;;;4977502;28;20027;-84
2022/02/18 22:10:43;;;;;;;1.23;0.37;;;;;;;;;;4985545;28;20066;-84
2022/02/18 22:13:09;;;;;;;2.83;0.50;;;;;;;;;;4993750;28;20029;-83
2022/02/18 22:15:36;;;;;;;2.63;0.30;;;;;;;;;;4996174;28;20034;-85
2022/02/18 22:18:02;;;;;;;1.87;0.23;;;;;;;;;;4983246;28;20030;-84
2022/02/18 22:20:28;;;;;;;1.60;0.30;;;;;;;;;;4981048;28;20481;-84
2022/02/18 22:22:54;;;;;;;3.00;0.40;;;;;;;;;;4971925;28;20038;-84
2022/02/18 22:25:20;;;;;;;3.10;0.30;;;;;;;;;;4977364;28;20092;-84
2022/02/18 22:27:46;;;;;;;2.87;0.40;;;;;;;;;;4976725;28;20034;-84
2022/02/18 22:30:13;;;;;;;0.50;0.20;;;;;;;;;;4975513;28;20025;-85
2022/02/18 22:32:39;;;;;;;4.93;0.53;;;;;;;;;;4976076;28;20031;-84
2022/02/18 22:35:06;;;;;;;2.20;0.23;;;;;;;;;;4972465;28;20037;-84
2022/02/18 22:37:34;;;;;;;1.47;0.33;;;;;;;;;;4978299;28;20023;-84
2022/02/18 22:40:01;;;;;;;4.10;0.30;;;;;;;;;;4992527;28;20030;-85
2022/02/18 22:42:27;;;;;;;2.83;0.20;;;;;;;;;;4991341;28;20040;-84
2022/02/18 22:44:54;;;;;;;2.63;0.23;;;;;;;;;;4975892;28;20122;-84
2022/02/18 22:47:20;;;;;;;2.50;0.80;;;;;;;;;;4992744;28;20030;-85
2022/02/18 22:49:46;;;;;;;2.57;0.50;;;;;;;;;;4982924;28;20038;-85
2022/02/18 22:52:12;;;;;;;2.23;0.37;;;;;;;;;;4978890;28;20426;-85
2022/02/18 22:54:38;;;;;;;4.63;0.67;;;;;;;;;;4991352;28;20022;-85
2022/02/18 22:57:05;;;;;;;2.40;0.20;;;;;;;;;;4958942;28;20022;-84
2022/02/18 22:59:31;;;;;;;1.30;0.50;;;;;;;;;;4960812;28;20420;-86
2022/02/18 23:01:57;;;;;;;3.67;0.40;;;;;;;;;;4962422;28;20427;-85
2022/02/18 23:04:22;;;;;;;2.07;0.30;;;;;;;;;;4978809;28;20042;-85
2022/02/18 23:06:48;;;;;;;1.60;0.30;;;;;;;;;;4984375;28;20058;-85
2022/02/18 23:09:14;;;;;;;0.83;0.10;;;;;;;;;;4991609;28;20022;-85
2022/02/18 23:11:41;;;;;;;4.20;0.40;;;;;;;;;;4980520;28;20026;-86
2022/02/18 23:14:07;;;;;;;4.27;0.43;;;;;;;;;;4985544;28;20027;-86
2022/02/18 23:16:33;;;;;;;2.17;0.33;;;;;;;;;;5000733;28;20033;-86
2022/02/18 23:18:59;;;;;;;3.07;0.67;;;;;;;;;;4980644;28;20134;-85
2022/02/18 23:21:26;;;;;;;2.03;0.40;;;;;;;;;;4981202;28;20132;-86
2022/02/18 23:23:52;;;;;;;2.87;0.33;;;;;;;;;;4978033;28;20062;-85
2022/02/18 23:26:21;;;;;;;1.27;0.30;;;;;;;;;;4978990;28;20041;-86
2022/02/18 23:28:56;;;;;;;3.40;0.60;;;;;;;;;;4989656;28;20038;-86
2022/02/18 23:31:28;;;;;;;2.10;0.30;;;;;;;;;;4977831;28;20090;-86
2022/02/18 23:34:27;;;;;;;1.70;0.25;;;;;;;;;;4983004;28;20038;-86
2022/02/18 23:37:35;;;;;;;2.63;0.43;;;;;;;;;;4988421;28;20034;-87
2022/02/18 23:40:41;;;;;;;1.13;0.40;;;;;;;;;;4980401;28;20038;-86
2022/02/18 23:43:36;;;;;;;;;;;;;;;;;;;;;
2022/02/18 23:46:31;;;;;;;3.83;0.40;;;;;;;;;;4986004;28;20035;-88
2022/02/18 23:49:17;;;;;;;3.10;0.33;;;;;;;;;;4990044;28;20093;-87
2022/02/18 23:52:03;;;;;;;;;;;;;;;;;;;;;
2022/02/18 23:58:59;;;;;;;;;;;;;;;;;;;;;
